sensor_id;sensor_type;location;lat;lon;timestamp;P1;durP1;ratioP1;P2;durP2;ratioP2
7051;SDS011;3567;52.444;13.556;2023-03-24T00:01:45;2.45;;;1.80;;
7051;SDS011;3567;52.444;13.556;2023-03-24T00:04:11;3.08;;;2.10;;
7051;SDS011;3567;52.444;13.556;2023-03-24T00:06:36;1.80;;;1.33;;
7051;SDS011;3567;52.444;13.556;2023-03-24T00:09:02;2.05;;;1.50;;
7051;SDS011;3567;52.444;13.556;2023-03-24T00:11:28;1.80;;;1.65;;
7051;SDS011;3567;52.444;13.556;2023-03-24T00:13:54;1.30;;;1.20;;
7051;SDS011;3567;52.444;13.556;2023-03-24T00:16:22;1.40;;;1.30;;
7051;SDS011;3567;52.444;13.556;2023-03-24T00:18:49;1.70;;;1.60;;
7051;SDS011;3567;52.444;13.556;2023-03-24T00:21:16;1.67;;;1.10;;
7051;SDS011;3567;52.444;13.556;2023-03-24T00:23:45;2.08;;;1.80;;
7051;SDS011;3567;52.444;13.556;2023-03-24T00:26:13;1.73;;;1.42;;
7051;SDS011;3567;52.444;13.556;2023-03-24T00:28:41;1.58;;;1.48;;
7051;SDS011;3567;52.444;13.556;2023-03-24T00:31:08;2.00;;;1.65;;
7051;SDS011;3567;52.444;13.556;2023-03-24T00:33:35;1.75;;;1.23;;
7051;SDS011;3567;52.444;13.556;2023-03-24T00:36:02;1.55;;;1.17;;
7051;SDS011;3567;52.444;13.556;2023-03-24T00:38:29;1.30;;;1.30;;
7051;SDS011;3567;52.444;13.556;2023-03-24T00:40:55;1.60;;;1.50;;
7051;SDS011;3567;52.444;13.556;2023-03-24T00:43:22;1.83;;;1.25;;
7051;SDS011;3567;52.444;13.556;2023-03-24T00:45:48;2.20;;;1.20;;
7051;SDS011;3567;52.444;13.556;2023-03-24T00:48:16;1.88;;;1.23;;
7051;SDS011;3567;52.444;13.556;2023-03-24T00:50:44;1.65;;;1.05;;
7051;SDS011;3567;52.444;13.556;2023-03-24T00:53:14;2.45;;;1.30;;
7051;SDS011;3567;52.444;13.556;2023-03-24T00:55:41;1.42;;;1.23;;
7051;SDS011;3567;52.444;13.556;2023-03-24T00:58:10;1.00;;;1.00;;
7051;SDS011;3567;52.444;13.556;2023-03-24T01:00:43;4.60;;;1.52;;
7051;SDS011;3567;52.444;13.556;2023-03-24T01:03:14;1.02;;;1.00;;
7051;SDS011;3567;52.444;13.556;2023-03-24T01:05:41;1.10;;;1.10;;
7051;SDS011;3567;52.444;13.556;2023-03-24T01:08:13;3.13;;;1.70;;
7051;SDS011;3567;52.444;13.556;2023-03-24T01:10:40;3.10;;;1.25;;
7051;SDS011;3567;52.444;13.556;2023-03-24T01:13:14;1.45;;;1.23;;
7051;SDS011;3567;52.444;13.556;2023-03-24T01:15:40;3.05;;;1.15;;
7051;SDS011;3567;52.444;13.556;2023-03-24T01:18:07;4.80;;;1.30;;
7051;SDS011;3567;52.444;13.556;2023-03-24T01:20:34;1.30;;;1.20;;
7051;SDS011;3567;52.444;13.556;2023-03-24T01:23:00;2.90;;;1.00;;
7051;SDS011;3567;52.444;13.556;2023-03-24T01:25:29;1.63;;;1.52;;
7051;SDS011;3567;52.444;13.556;2023-03-24T01:27:54;2.90;;;1.27;;
7051;SDS011;3567;52.444;13.556;2023-03-24T01:30:22;0.98;;;0.80;;
7051;SDS011;3567;52.444;13.556;2023-03-24T01:32:49;1.40;;;1.30;;
7051;SDS011;3567;52.444;13.556;2023-03-24T01:35:16;2.88;;;1.08;;
7051;SDS011;3567;52.444;13.556;2023-03-24T01:37:41;1.50;;;1.00;;
7051;SDS011;3567;52.444;13.556;2023-03-24T01:40:07;1.55;;;1.35;;
7051;SDS011;3567;52.444;13.556;2023-03-24T01:42:35;1.45;;;1.35;;
7051;SDS011;3567;52.444;13.556;2023-03-24T01:45:48;1.88;;;1.33;;
7051;SDS011;3567;52.444;13.556;2023-03-24T01:48:02;2.85;;;1.20;;
7051;SDS011;3567;52.444;13.556;2023-03-24T01:50:30;1.50;;;1.40;;
7051;SDS011;3567;52.444;13.556;2023-03-24T01:52:56;1.30;;;1.20;;
7051;SDS011;3567;52.444;13.556;2023-03-24T01:55:22;1.83;;;1.20;;
7051;SDS011;3567;52.444;13.556;2023-03-24T01:57:48;1.42;;;1.33;;
7051;SDS011;3567;52.444;13.556;2023-03-24T02:00:18;1.95;;;1.63;;
7051;SDS011;3567;52.444;13.556;2023-03-24T02:02:46;2.65;;;1.63;;
7051;SDS011;3567;52.444;13.556;2023-03-24T02:05:18;1.90;;;1.80;;
7051;SDS011;3567;52.444;13.556;2023-03-24T02:07:49;1.52;;;1.40;;
7051;SDS011;3567;52.444;13.556;2023-03-24T02:10:22;1.83;;;1.67;;
7051;SDS011;3567;52.444;13.556;2023-03-24T02:12:49;3.13;;;1.50;;
7051;SDS011;3567;52.444;13.556;2023-03-24T02:15:15;3.80;;;1.52;;
7051;SDS011;3567;52.444;13.556;2023-03-24T02:17:49;2.70;;;1.42;;
7051;SDS011;3567;52.444;13.556;2023-03-24T02:42:28;1.23;;;1.13;;
7051;SDS011;3567;52.444;13.556;2023-03-24T02:45:17;1.33;;;1.00;;
7051;SDS011;3567;52.444;13.556;2023-03-24T02:53:00;2.17;;;1.30;;
7051;SDS011;3567;52.444;13.556;2023-03-24T02:55:32;2.55;;;1.38;;
7051;SDS011;3567;52.444;13.556;2023-03-24T02:58:06;1.40;;;1.30;;
7051;SDS011;3567;52.444;13.556;2023-03-24T03:01:04;1.63;;;1.10;;
7051;SDS011;3567;52.444;13.556;2023-03-24T03:03:32;2.25;;;0.95;;
7051;SDS011;3567;52.444;13.556;2023-03-24T03:08:42;1.67;;;1.10;;
7051;SDS011;3567;52.444;13.556;2023-03-24T03:11:14;1.48;;;1.35;;
7051;SDS011;3567;52.444;13.556;2023-03-24T03:13:54;2.08;;;1.20;;
7051;SDS011;3567;52.444;13.556;2023-03-24T03:19:02;4.63;;;1.27;;
7051;SDS011;3567;52.444;13.556;2023-03-24T03:21:34;1.58;;;1.48;;
7051;SDS011;3567;52.444;13.556;2023-03-24T03:24:05;3.00;;;1.50;;
7051;SDS011;3567;52.444;13.556;2023-03-24T03:26:37;1.55;;;1.45;;
7051;SDS011;3567;52.444;13.556;2023-03-24T03:29:04;1.50;;;1.50;;
7051;SDS011;3567;52.444;13.556;2023-03-24T03:31:39;4.35;;;1.48;;
7051;SDS011;3567;52.444;13.556;2023-03-24T03:37:03;1.80;;;1.70;;
7051;SDS011;3567;52.444;13.556;2023-03-24T03:39:32;1.73;;;1.60;;
7051;SDS011;3567;52.444;13.556;2023-03-24T03:42:01;1.70;;;1.60;;
7051;SDS011;3567;52.444;13.556;2023-03-24T03:44:28;1.33;;;1.33;;
7051;SDS011;3567;52.444;13.556;2023-03-24T03:46:55;2.20;;;2.10;;
7051;SDS011;3567;52.444;13.556;2023-03-24T03:49:21;2.17;;;1.95;;
7051;SDS011;3567;52.444;13.556;2023-03-24T03:51:46;2.13;;;1.95;;
7051;SDS011;3567;52.444;13.556;2023-03-24T03:54:12;2.13;;;2.00;;
7051;SDS011;3567;52.444;13.556;2023-03-24T03:56:41;3.40;;;1.88;;
7051;SDS011;3567;52.444;13.556;2023-03-24T03:59:07;2.35;;;2.15;;
7051;SDS011;3567;52.444;13.556;2023-03-24T04:01:47;5.70;;;2.40;;
7051;SDS011;3567;52.444;13.556;2023-03-24T04:16:04;5.43;;;3.22;;
7051;SDS011;3567;52.444;13.556;2023-03-24T04:18:49;3.13;;;2.92;;
7051;SDS011;3567;52.444;13.556;2023-03-24T04:21:46;3.15;;;2.85;;
7051;SDS011;3567;52.444;13.556;2023-03-24T04:32:40;5.47;;;3.80;;
7051;SDS011;3567;52.444;13.556;2023-03-24T04:35:24;4.97;;;4.47;;
7051;SDS011;3567;52.444;13.556;2023-03-24T04:37:56;3.90;;;3.42;;
7051;SDS011;3567;52.444;13.556;2023-03-24T04:40:47;4.78;;;3.53;;
7051;SDS011;3567;52.444;13.556;2023-03-24T04:43:16;5.30;;;4.78;;
7051;SDS011;3567;52.444;13.556;2023-03-24T04:45:45;4.22;;;3.90;;
7051;SDS011;3567;52.444;13.556;2023-03-24T04:48:14;4.30;;;3.63;;
7051;SDS011;3567;52.444;13.556;2023-03-24T04:50:43;4.95;;;4.22;;
7051;SDS011;3567;52.444;13.556;2023-03-24T04:53:16;5.13;;;4.25;;
7051;SDS011;3567;52.444;13.556;2023-03-24T04:58:18;4.82;;;4.07;;
7051;SDS011;3567;52.444;13.556;2023-03-24T05:00:44;6.60;;;4.57;;
7051;SDS011;3567;52.444;13.556;2023-03-24T05:03:10;4.65;;;4.25;;
7051;SDS011;3567;52.444;13.556;2023-03-24T05:05:38;5.55;;;5.03;;
7051;SDS011;3567;52.444;13.556;2023-03-24T05:08:08;5.20;;;4.70;;
7051;SDS011;3567;52.444;13.556;2023-03-24T05:10:35;5.85;;;5.25;;
7051;SDS011;3567;52.444;13.556;2023-03-24T05:13:01;5.60;;;5.20;;
7051;SDS011;3567;52.444;13.556;2023-03-24T05:15:27;6.25;;;4.95;;
7051;SDS011;3567;52.444;13.556;2023-03-24T05:17:53;5.03;;;4.63;;
7051;SDS011;3567;52.444;13.556;2023-03-24T05:20:18;4.68;;;4.25;;
7051;SDS011;3567;52.444;13.556;2023-03-24T05:22:44;6.60;;;5.03;;
7051;SDS011;3567;52.444;13.556;2023-03-24T05:25:09;6.65;;;5.07;;
7051;SDS011;3567;52.444;13.556;2023-03-24T05:27:35;4.57;;;4.28;;
7051;SDS011;3567;52.444;13.556;2023-03-24T05:30:00;5.22;;;4.80;;
7051;SDS011;3567;52.444;13.556;2023-03-24T05:32:25;6.70;;;5.20;;
7051;SDS011;3567;52.444;13.556;2023-03-24T05:34:51;4.55;;;4.18;;
7051;SDS011;3567;52.444;13.556;2023-03-24T05:37:16;4.95;;;4.50;;
7051;SDS011;3567;52.444;13.556;2023-03-24T05:39:42;5.82;;;5.28;;
7051;SDS011;3567;52.444;13.556;2023-03-24T05:42:08;5.32;;;4.93;;
7051;SDS011;3567;52.444;13.556;2023-03-24T05:44:34;5.13;;;4.60;;
7051;SDS011;3567;52.444;13.556;2023-03-24T05:47:00;4.63;;;4.20;;
7051;SDS011;3567;52.444;13.556;2023-03-24T05:49:25;5.65;;;4.10;;
7051;SDS011;3567;52.444;13.556;2023-03-24T05:51:50;4.68;;;4.15;;
7051;SDS011;3567;52.444;13.556;2023-03-24T05:54:16;6.68;;;4.75;;
7051;SDS011;3567;52.444;13.556;2023-03-24T05:56:41;6.13;;;4.30;;
7051;SDS011;3567;52.444;13.556;2023-03-24T05:59:07;4.20;;;3.80;;
7051;SDS011;3567;52.444;13.556;2023-03-24T06:01:32;4.05;;;3.67;;
7051;SDS011;3567;52.444;13.556;2023-03-24T06:03:57;4.20;;;3.80;;
7051;SDS011;3567;52.444;13.556;2023-03-24T06:06:23;4.07;;;3.60;;
7051;SDS011;3567;52.444;13.556;2023-03-24T06:08:50;4.15;;;3.75;;
7051;SDS011;3567;52.444;13.556;2023-03-24T06:11:18;3.53;;;3.33;;
7051;SDS011;3567;52.444;13.556;2023-03-24T06:13:44;3.65;;;2.88;;
7051;SDS011;3567;52.444;13.556;2023-03-24T06:16:09;14.52;;;3.70;;
7051;SDS011;3567;52.444;13.556;2023-03-24T06:18:36;4.35;;;3.13;;
7051;SDS011;3567;52.444;13.556;2023-03-24T06:21:04;3.28;;;2.88;;
7051;SDS011;3567;52.444;13.556;2023-03-24T06:23:31;4.50;;;3.35;;
7051;SDS011;3567;52.444;13.556;2023-03-24T06:25:57;5.63;;;3.80;;
7051;SDS011;3567;52.444;13.556;2023-03-24T06:28:25;3.30;;;3.05;;
7051;SDS011;3567;52.444;13.556;2023-03-24T06:30:54;2.78;;;2.55;;
7051;SDS011;3567;52.444;13.556;2023-03-24T06:33:20;3.30;;;2.63;;
7051;SDS011;3567;52.444;13.556;2023-03-24T06:35:49;3.00;;;2.63;;
7051;SDS011;3567;52.444;13.556;2023-03-24T06:38:15;3.17;;;2.92;;
7051;SDS011;3567;52.444;13.556;2023-03-24T06:40:41;20.30;;;14.18;;
7051;SDS011;3567;52.444;13.556;2023-03-24T06:43:06;4.97;;;4.35;;
7051;SDS011;3567;52.444;13.556;2023-03-24T06:45:31;3.15;;;2.90;;
7051;SDS011;3567;52.444;13.556;2023-03-24T06:47:58;3.63;;;3.00;;
7051;SDS011;3567;52.444;13.556;2023-03-24T06:50:23;2.70;;;2.50;;
7051;SDS011;3567;52.444;13.556;2023-03-24T06:52:51;5.85;;;3.10;;
7051;SDS011;3567;52.444;13.556;2023-03-24T06:55:19;2.58;;;2.42;;
7051;SDS011;3567;52.444;13.556;2023-03-24T06:57:46;4.65;;;2.95;;
7051;SDS011;3567;52.444;13.556;2023-03-24T07:00:12;3.30;;;3.10;;
7051;SDS011;3567;52.444;13.556;2023-03-24T07:02:37;7.63;;;4.43;;
7051;SDS011;3567;52.444;13.556;2023-03-24T07:05:03;3.72;;;3.42;;
7051;SDS011;3567;52.444;13.556;2023-03-24T07:07:36;3.28;;;2.67;;
7051;SDS011;3567;52.444;13.556;2023-03-24T07:10:02;4.15;;;3.05;;
7051;SDS011;3567;52.444;13.556;2023-03-24T07:12:29;2.80;;;2.67;;
7051;SDS011;3567;52.444;13.556;2023-03-24T07:14:55;3.75;;;2.67;;
7051;SDS011;3567;52.444;13.556;2023-03-24T07:17:20;4.22;;;2.90;;
7051;SDS011;3567;52.444;13.556;2023-03-24T07:19:46;4.57;;;2.97;;
7051;SDS011;3567;52.444;13.556;2023-03-24T07:22:11;3.00;;;2.70;;
7051;SDS011;3567;52.444;13.556;2023-03-24T07:24:36;2.50;;;2.30;;
7051;SDS011;3567;52.444;13.556;2023-03-24T07:27:02;2.60;;;2.47;;
7051;SDS011;3567;52.444;13.556;2023-03-24T07:29:28;3.78;;;3.10;;
7051;SDS011;3567;52.444;13.556;2023-03-24T07:31:53;5.32;;;4.82;;
7051;SDS011;3567;52.444;13.556;2023-03-24T07:34:22;3.03;;;2.65;;
7051;SDS011;3567;52.444;13.556;2023-03-24T07:36:48;4.05;;;2.95;;
7051;SDS011;3567;52.444;13.556;2023-03-24T07:39:13;2.55;;;2.35;;
7051;SDS011;3567;52.444;13.556;2023-03-24T07:41:39;2.50;;;2.30;;
7051;SDS011;3567;52.444;13.556;2023-03-24T07:44:05;3.97;;;2.33;;
7051;SDS011;3567;52.444;13.556;2023-03-24T07:46:30;2.88;;;2.25;;
7051;SDS011;3567;52.444;13.556;2023-03-24T07:48:55;2.28;;;2.08;;
7051;SDS011;3567;52.444;13.556;2023-03-24T07:51:21;4.32;;;2.25;;
7051;SDS011;3567;52.444;13.556;2023-03-24T07:53:46;3.63;;;2.78;;
7051;SDS011;3567;52.444;13.556;2023-03-24T07:56:13;2.65;;;2.45;;
7051;SDS011;3567;52.444;13.556;2023-03-24T07:58:38;2.92;;;2.63;;
7051;SDS011;3567;52.444;13.556;2023-03-24T08:01:07;2.92;;;2.70;;
7051;SDS011;3567;52.444;13.556;2023-03-24T08:03:35;5.32;;;2.55;;
7051;SDS011;3567;52.444;13.556;2023-03-24T08:06:02;3.38;;;3.08;;
7051;SDS011;3567;52.444;13.556;2023-03-24T08:08:29;10.07;;;3.00;;
7051;SDS011;3567;52.444;13.556;2023-03-24T08:10:55;6.50;;;2.97;;
7051;SDS011;3567;52.444;13.556;2023-03-24T08:13:21;5.53;;;5.03;;
7051;SDS011;3567;52.444;13.556;2023-03-24T08:15:46;4.28;;;3.08;;
7051;SDS011;3567;52.444;13.556;2023-03-24T08:18:12;3.83;;;2.80;;
7051;SDS011;3567;52.444;13.556;2023-03-24T08:20:37;3.50;;;3.15;;
7051;SDS011;3567;52.444;13.556;2023-03-24T08:23:03;4.15;;;2.92;;
7051;SDS011;3567;52.444;13.556;2023-03-24T08:25:30;4.78;;;3.20;;
7051;SDS011;3567;52.444;13.556;2023-03-24T08:27:56;4.32;;;3.60;;
7051;SDS011;3567;52.444;13.556;2023-03-24T08:30:22;28.05;;;3.80;;
7051;SDS011;3567;52.444;13.556;2023-03-24T08:32:50;4.53;;;3.75;;
7051;SDS011;3567;52.444;13.556;2023-03-24T08:35:19;5.00;;;3.13;;
7051;SDS011;3567;52.444;13.556;2023-03-24T08:37:47;6.15;;;3.17;;
7051;SDS011;3567;52.444;13.556;2023-03-24T08:40:13;5.38;;;3.30;;
7051;SDS011;3567;52.444;13.556;2023-03-24T08:42:43;3.67;;;3.38;;
7051;SDS011;3567;52.444;13.556;2023-03-24T08:45:11;4.05;;;3.70;;
7051;SDS011;3567;52.444;13.556;2023-03-24T08:47:37;5.10;;;3.53;;
7051;SDS011;3567;52.444;13.556;2023-03-24T08:50:05;4.85;;;3.67;;
7051;SDS011;3567;52.444;13.556;2023-03-24T08:52:31;4.45;;;4.05;;
7051;SDS011;3567;52.444;13.556;2023-03-24T08:54:57;4.63;;;4.00;;
7051;SDS011;3567;52.444;13.556;2023-03-24T08:57:23;3.53;;;3.22;;
7051;SDS011;3567;52.444;13.556;2023-03-24T08:59:48;5.53;;;4.05;;
7051;SDS011;3567;52.444;13.556;2023-03-24T09:02:13;3.80;;;3.45;;
7051;SDS011;3567;52.444;13.556;2023-03-24T09:04:39;4.57;;;3.63;;
7051;SDS011;3567;52.444;13.556;2023-03-24T09:07:06;5.20;;;3.65;;
7051;SDS011;3567;52.444;13.556;2023-03-24T09:09:33;4.25;;;3.85;;
7051;SDS011;3567;52.444;13.556;2023-03-24T09:11:59;5.43;;;4.00;;
7051;SDS011;3567;52.444;13.556;2023-03-24T09:14:25;4.68;;;3.67;;
7051;SDS011;3567;52.444;13.556;2023-03-24T09:16:50;5.47;;;3.50;;
7051;SDS011;3567;52.444;13.556;2023-03-24T09:19:16;4.32;;;3.50;;
7051;SDS011;3567;52.444;13.556;2023-03-24T09:21:45;8.82;;;3.95;;
7051;SDS011;3567;52.444;13.556;2023-03-24T09:24:12;4.90;;;3.47;;
7051;SDS011;3567;52.444;13.556;2023-03-24T09:26:38;3.63;;;3.33;;
7051;SDS011;3567;52.444;13.556;2023-03-24T09:29:03;6.07;;;3.90;;
7051;SDS011;3567;52.444;13.556;2023-03-24T09:31:29;3.78;;;3.22;;
7051;SDS011;3567;52.444;13.556;2023-03-24T09:33:55;3.83;;;3.40;;
7051;SDS011;3567;52.444;13.556;2023-03-24T09:36:20;6.00;;;3.75;;
7051;SDS011;3567;52.444;13.556;2023-03-24T09:38:45;3.78;;;2.97;;
7051;SDS011;3567;52.444;13.556;2023-03-24T09:41:14;5.88;;;3.17;;
7051;SDS011;3567;52.444;13.556;2023-03-24T09:46:11;3.28;;;2.78;;
7051;SDS011;3567;52.444;13.556;2023-03-24T09:49:40;5.82;;;3.33;;
7051;SDS011;3567;52.444;13.556;2023-03-24T09:51:41;3.97;;;3.60;;
7051;SDS011;3567;52.444;13.556;2023-03-24T09:56:52;5.22;;;3.50;;
7051;SDS011;3567;52.444;13.556;2023-03-24T10:01:48;3.30;;;3.05;;
7051;SDS011;3567;52.444;13.556;2023-03-24T10:04:23;5.75;;;3.17;;
7051;SDS011;3567;52.444;13.556;2023-03-24T10:06:52;3.72;;;2.80;;
7051;SDS011;3567;52.444;13.556;2023-03-24T10:09:52;3.72;;;3.17;;
7051;SDS011;3567;52.444;13.556;2023-03-24T10:14:56;3.58;;;3.00;;
7051;SDS011;3567;52.444;13.556;2023-03-24T10:20:43;3.33;;;3.03;;
7051;SDS011;3567;52.444;13.556;2023-03-24T10:23:35;3.30;;;3.03;;
7051;SDS011;3567;52.444;13.556;2023-03-24T10:26:21;2.47;;;2.22;;
7051;SDS011;3567;52.444;13.556;2023-03-24T10:31:25;4.00;;;2.22;;
7051;SDS011;3567;52.444;13.556;2023-03-24T10:33:54;2.67;;;2.47;;
7051;SDS011;3567;52.444;13.556;2023-03-24T10:36:20;2.50;;;2.30;;
7051;SDS011;3567;52.444;13.556;2023-03-24T10:38:47;2.80;;;2.60;;
7051;SDS011;3567;52.444;13.556;2023-03-24T10:41:14;2.63;;;2.42;;
7051;SDS011;3567;52.444;13.556;2023-03-24T10:43:43;2.83;;;2.63;;
7051;SDS011;3567;52.444;13.556;2023-03-24T10:46:11;3.20;;;2.60;;
7051;SDS011;3567;52.444;13.556;2023-03-24T10:48:41;2.83;;;2.22;;
7051;SDS011;3567;52.444;13.556;2023-03-24T10:53:42;2.20;;;2.00;;
7051;SDS011;3567;52.444;13.556;2023-03-24T10:56:59;3.70;;;2.03;;
7051;SDS011;3567;52.444;13.556;2023-03-24T10:59:04;1.70;;;1.58;;
7051;SDS011;3567;52.444;13.556;2023-03-24T11:01:49;1.75;;;1.65;;
7051;SDS011;3567;52.444;13.556;2023-03-24T11:04:19;3.58;;;2.17;;
7051;SDS011;3567;52.444;13.556;2023-03-24T11:09:41;1.95;;;1.85;;
7051;SDS011;3567;52.444;13.556;2023-03-24T11:12:24;1.55;;;1.42;;
7051;SDS011;3567;52.444;13.556;2023-03-24T11:14:51;1.90;;;1.80;;
7051;SDS011;3567;52.444;13.556;2023-03-24T11:17:24;2.92;;;1.88;;
7051;SDS011;3567;52.444;13.556;2023-03-24T11:19:55;2.67;;;1.25;;
7051;SDS011;3567;52.444;13.556;2023-03-24T11:22:21;1.35;;;1.30;;
7051;SDS011;3567;52.444;13.556;2023-03-24T11:24:49;2.40;;;0.90;;
7051;SDS011;3567;52.444;13.556;2023-03-24T11:27:19;1.95;;;1.10;;
7051;SDS011;3567;52.444;13.556;2023-03-24T11:29:48;1.80;;;0.90;;
7051;SDS011;3567;52.444;13.556;2023-03-24T11:32:25;1.80;;;1.00;;
7051;SDS011;3567;52.444;13.556;2023-03-24T11:35:07;3.95;;;1.10;;
7051;SDS011;3567;52.444;13.556;2023-03-24T11:37:41;1.60;;;0.93;;
7051;SDS011;3567;52.444;13.556;2023-03-24T11:42:49;2.42;;;1.20;;
7051;SDS011;3567;52.444;13.556;2023-03-24T11:45:29;1.25;;;1.25;;
7051;SDS011;3567;52.444;13.556;2023-03-24T11:48:03;1.95;;;0.95;;
7051;SDS011;3567;52.444;13.556;2023-03-24T11:50:38;2.55;;;1.00;;
7051;SDS011;3567;52.444;13.556;2023-03-24T11:53:16;1.40;;;0.90;;
7051;SDS011;3567;52.444;13.556;2023-03-24T11:55:53;2.33;;;2.13;;
7051;SDS011;3567;52.444;13.556;2023-03-24T11:58:43;1.83;;;1.13;;
7051;SDS011;3567;52.444;13.556;2023-03-24T12:03:49;0.90;;;0.90;;
7051;SDS011;3567;52.444;13.556;2023-03-24T12:09:19;2.50;;;1.20;;
7051;SDS011;3567;52.444;13.556;2023-03-24T12:17:20;1.75;;;1.30;;
7051;SDS011;3567;52.444;13.556;2023-03-24T12:23:03;1.55;;;1.45;;
7051;SDS011;3567;52.444;13.556;2023-03-24T12:33:30;1.50;;;1.42;;
7051;SDS011;3567;52.444;13.556;2023-03-24T12:39:08;1.75;;;1.65;;
7051;SDS011;3567;52.444;13.556;2023-03-24T12:55:47;1.73;;;1.63;;
7051;SDS011;3567;52.444;13.556;2023-03-24T12:59:00;1.92;;;1.40;;
7051;SDS011;3567;52.444;13.556;2023-03-24T13:01:15;1.63;;;1.52;;
7051;SDS011;3567;52.444;13.556;2023-03-24T13:03:44;5.57;;;2.05;;
7051;SDS011;3567;52.444;13.556;2023-03-24T13:09:13;3.58;;;1.20;;
7051;SDS011;3567;52.444;13.556;2023-03-24T13:14:38;2.25;;;1.42;;
7051;SDS011;3567;52.444;13.556;2023-03-24T13:17:11;2.08;;;1.10;;
7051;SDS011;3567;52.444;13.556;2023-03-24T13:19:42;1.50;;;1.40;;
7051;SDS011;3567;52.444;13.556;2023-03-24T13:22:10;1.95;;;1.30;;
7051;SDS011;3567;52.444;13.556;2023-03-24T13:24:42;2.35;;;1.38;;
7051;SDS011;3567;52.444;13.556;2023-03-24T13:37:33;1.88;;;1.00;;
7051;SDS011;3567;52.444;13.556;2023-03-24T13:40:09;1.00;;;1.00;;
7051;SDS011;3567;52.444;13.556;2023-03-24T13:43:06;1.75;;;1.00;;
7051;SDS011;3567;52.444;13.556;2023-03-24T13:45:43;1.50;;;0.75;;
7051;SDS011;3567;52.444;13.556;2023-03-24T13:53:49;1.67;;;1.08;;
7051;SDS011;3567;52.444;13.556;2023-03-24T13:56:22;1.60;;;1.50;;
7051;SDS011;3567;52.444;13.556;2023-03-24T14:02:09;1.80;;;0.95;;
7051;SDS011;3567;52.444;13.556;2023-03-24T14:10:00;1.48;;;0.82;;
7051;SDS011;3567;52.444;13.556;2023-03-24T14:12:53;2.08;;;0.90;;
7051;SDS011;3567;52.444;13.556;2023-03-24T14:15:28;3.92;;;0.98;;
7051;SDS011;3567;52.444;13.556;2023-03-24T14:26:01;2.45;;;0.80;;
7051;SDS011;3567;52.444;13.556;2023-03-24T14:28:30;1.70;;;0.70;;
7051;SDS011;3567;52.444;13.556;2023-03-24T14:31:02;1.20;;;0.85;;
7051;SDS011;3567;52.444;13.556;2023-03-24T14:36:20;1.20;;;0.57;;
7051;SDS011;3567;52.444;13.556;2023-03-24T14:38:50;3.42;;;0.55;;
7051;SDS011;3567;52.444;13.556;2023-03-24T14:41:25;7.78;;;1.63;;
7051;SDS011;3567;52.444;13.556;2023-03-24T14:43:54;1.33;;;1.23;;
7051;SDS011;3567;52.444;13.556;2023-03-24T14:51:49;5.13;;;2.08;;
7051;SDS011;3567;52.444;13.556;2023-03-24T14:56:54;2.60;;;1.48;;
7051;SDS011;3567;52.444;13.556;2023-03-24T15:01:51;2.67;;;1.17;;
7051;SDS011;3567;52.444;13.556;2023-03-24T15:04:25;3.10;;;1.10;;
7051;SDS011;3567;52.444;13.556;2023-03-24T15:06:50;0.63;;;0.63;;
7051;SDS011;3567;52.444;13.556;2023-03-24T15:09:16;1.63;;;1.08;;
7051;SDS011;3567;52.444;13.556;2023-03-24T15:11:42;1.08;;;0.75;;
7051;SDS011;3567;52.444;13.556;2023-03-24T15:14:15;2.22;;;0.50;;
7051;SDS011;3567;52.444;13.556;2023-03-24T15:16:50;1.05;;;0.73;;
7051;SDS011;3567;52.444;13.556;2023-03-24T15:19:27;1.45;;;1.35;;
7051;SDS011;3567;52.444;13.556;2023-03-24T15:21:59;3.60;;;0.98;;
7051;SDS011;3567;52.444;13.556;2023-03-24T15:24:30;1.73;;;0.70;;
7051;SDS011;3567;52.444;13.556;2023-03-24T15:29:41;1.58;;;0.80;;
7051;SDS011;3567;52.444;13.556;2023-03-24T15:32:17;2.42;;;0.98;;
7051;SDS011;3567;52.444;13.556;2023-03-24T15:34:54;3.28;;;0.90;;
7051;SDS011;3567;52.444;13.556;2023-03-24T15:37:39;3.88;;;1.08;;
7051;SDS011;3567;52.444;13.556;2023-03-24T15:43:02;3.72;;;1.20;;
7051;SDS011;3567;52.444;13.556;2023-03-24T15:48:05;5.68;;;0.90;;
7051;SDS011;3567;52.444;13.556;2023-03-24T15:50:37;3.17;;;0.80;;
7051;SDS011;3567;52.444;13.556;2023-03-24T15:53:25;3.20;;;0.93;;
7051;SDS011;3567;52.444;13.556;2023-03-24T15:58:54;1.65;;;0.90;;
7051;SDS011;3567;52.444;13.556;2023-03-24T16:01:22;3.47;;;1.25;;
7051;SDS011;3567;52.444;13.556;2023-03-24T16:03:55;3.63;;;0.93;;
7051;SDS011;3567;52.444;13.556;2023-03-24T16:06:28;4.38;;;1.00;;
7051;SDS011;3567;52.444;13.556;2023-03-24T16:08:59;2.95;;;0.95;;
7051;SDS011;3567;52.444;13.556;2023-03-24T16:11:28;3.40;;;1.10;;
7051;SDS011;3567;52.444;13.556;2023-03-24T16:13:53;1.50;;;0.90;;
7051;SDS011;3567;52.444;13.556;2023-03-24T16:16:21;1.73;;;1.10;;
7051;SDS011;3567;52.444;13.556;2023-03-24T16:18:47;2.63;;;0.93;;
7051;SDS011;3567;52.444;13.556;2023-03-24T16:21:15;2.05;;;1.00;;
7051;SDS011;3567;52.444;13.556;2023-03-24T16:23:46;2.72;;;0.90;;
7051;SDS011;3567;52.444;13.556;2023-03-24T16:28:39;3.70;;;0.80;;
7051;SDS011;3567;52.444;13.556;2023-03-24T16:31:05;4.80;;;1.30;;
7051;SDS011;3567;52.444;13.556;2023-03-24T16:33:30;2.78;;;0.93;;
7051;SDS011;3567;52.444;13.556;2023-03-24T16:35:57;3.53;;;1.30;;
7051;SDS011;3567;52.444;13.556;2023-03-24T16:38:23;1.83;;;1.10;;
7051;SDS011;3567;52.444;13.556;2023-03-24T16:40:55;4.80;;;1.02;;
7051;SDS011;3567;52.444;13.556;2023-03-24T16:43:24;2.70;;;0.77;;
7051;SDS011;3567;52.444;13.556;2023-03-24T16:45:51;4.53;;;1.02;;
7051;SDS011;3567;52.444;13.556;2023-03-24T16:48:17;1.20;;;0.80;;
7051;SDS011;3567;52.444;13.556;2023-03-24T16:50:44;1.42;;;0.95;;
7051;SDS011;3567;52.444;13.556;2023-03-24T16:53:14;3.97;;;1.83;;
7051;SDS011;3567;52.444;13.556;2023-03-24T16:55:39;6.05;;;3.38;;
7051;SDS011;3567;52.444;13.556;2023-03-24T16:58:05;5.18;;;2.67;;
7051;SDS011;3567;52.444;13.556;2023-03-24T17:00:32;4.40;;;3.35;;
7051;SDS011;3567;52.444;13.556;2023-03-24T17:03:00;17.63;;;12.63;;
7051;SDS011;3567;52.444;13.556;2023-03-24T17:05:48;9.57;;;6.18;;
7051;SDS011;3567;52.444;13.556;2023-03-24T17:08:13;6.15;;;3.42;;
7051;SDS011;3567;52.444;13.556;2023-03-24T17:10:40;22.55;;;13.02;;
7051;SDS011;3567;52.444;13.556;2023-03-24T17:13:08;10.50;;;5.50;;
7051;SDS011;3567;52.444;13.556;2023-03-24T17:15:40;7.88;;;6.03;;
7051;SDS011;3567;52.444;13.556;2023-03-24T17:18:05;8.32;;;4.63;;
7051;SDS011;3567;52.444;13.556;2023-03-24T17:20:32;3.85;;;2.85;;
7051;SDS011;3567;52.444;13.556;2023-03-24T17:22:59;4.00;;;2.40;;
7051;SDS011;3567;52.444;13.556;2023-03-24T17:25:24;4.47;;;2.10;;
7051;SDS011;3567;52.444;13.556;2023-03-24T17:27:53;9.13;;;8.23;;
7051;SDS011;3567;52.444;13.556;2023-03-24T17:30:20;4.40;;;1.95;;
7051;SDS011;3567;52.444;13.556;2023-03-24T17:32:47;2.72;;;2.35;;
7051;SDS011;3567;52.444;13.556;2023-03-24T17:35:17;4.25;;;1.10;;
7051;SDS011;3567;52.444;13.556;2023-03-24T17:37:44;4.32;;;1.85;;
7051;SDS011;3567;52.444;13.556;2023-03-24T17:40:10;3.35;;;1.60;;
7051;SDS011;3567;52.444;13.556;2023-03-24T17:42:38;4.95;;;1.42;;
7051;SDS011;3567;52.444;13.556;2023-03-24T17:45:05;3.40;;;1.20;;
7051;SDS011;3567;52.444;13.556;2023-03-24T17:47:32;3.60;;;1.33;;
7051;SDS011;3567;52.444;13.556;2023-03-24T17:49:58;1.98;;;1.30;;
7051;SDS011;3567;52.444;13.556;2023-03-24T17:52:23;6.75;;;1.80;;
7051;SDS011;3567;52.444;13.556;2023-03-24T17:54:49;10.40;;;4.55;;
7051;SDS011;3567;52.444;13.556;2023-03-24T17:57:15;8.88;;;5.57;;
7051;SDS011;3567;52.444;13.556;2023-03-24T17:59:41;5.88;;;3.33;;
7051;SDS011;3567;52.444;13.556;2023-03-24T18:02:08;21.10;;;13.30;;
7051;SDS011;3567;52.444;13.556;2023-03-24T18:04:36;6.85;;;4.32;;
7051;SDS011;3567;52.444;13.556;2023-03-24T18:07:01;5.50;;;2.25;;
7051;SDS011;3567;52.444;13.556;2023-03-24T18:09:27;5.75;;;3.05;;
7051;SDS011;3567;52.444;13.556;2023-03-24T18:11:55;5.55;;;2.35;;
7051;SDS011;3567;52.444;13.556;2023-03-24T18:14:21;3.47;;;2.10;;
7051;SDS011;3567;52.444;13.556;2023-03-24T18:16:47;6.85;;;2.55;;
7051;SDS011;3567;52.444;13.556;2023-03-24T18:19:12;2.72;;;2.45;;
7051;SDS011;3567;52.444;13.556;2023-03-24T18:21:37;6.95;;;3.65;;